createdAt,value
2019-02-22T00:01:35.489Z,62.37
2019-02-22T00:04:03.637Z,62.77
2019-02-22T00:06:31.563Z,75.60
2019-02-22T00:08:59.570Z,58.47
2019-02-22T00:11:27.571Z,70.33
2019-02-22T00:13:55.230Z,58.07
2019-02-22T00:16:23.654Z,54.90
2019-02-22T00:18:51.316Z,66.60
2019-02-22T00:21:19.590Z,69.23
2019-02-22T00:23:47.635Z,67.13
2019-02-22T00:26:15.997Z,65.60
2019-02-22T00:28:43.925Z,66.63
2019-02-22T00:31:11.938Z,61.17
2019-02-22T00:33:39.872Z,59.00
2019-02-22T00:36:08.318Z,63.73
2019-02-22T00:38:35.974Z,78.33
2019-02-22T00:41:04.116Z,65.37
2019-02-22T00:43:32.071Z,57.30
2019-02-22T00:46:00.065Z,63.67
2019-02-22T00:48:27.817Z,66.27
2019-02-22T00:50:55.772Z,63.53
2019-02-22T00:53:23.754Z,67.60
2019-02-22T00:55:52.263Z,64.50
2019-02-22T00:58:20.612Z,66.80
2019-02-22T01:00:48.557Z,63.17
2019-02-22T01:03:16.841Z,67.17
2019-02-22T01:05:44.521Z,66.00
2019-02-22T01:08:12.202Z,58.23
2019-02-22T01:10:40.396Z,66.30
2019-02-22T01:13:08.371Z,66.17
2019-02-22T01:15:36.041Z,73.00
2019-02-22T01:18:04.463Z,65.97
2019-02-22T01:20:32.571Z,67.33
2019-02-22T01:23:00.917Z,67.10
2019-02-22T01:25:29.121Z,73.23
2019-02-22T01:27:56.786Z,69.10
2019-02-22T01:30:24.821Z,81.03
2019-02-22T01:32:52.832Z,66.83
2019-02-22T01:35:20.967Z,77.60
2019-02-22T01:37:49.169Z,75.73
2019-02-22T01:40:16.830Z,71.03
2019-02-22T01:42:44.557Z,72.77
2019-02-22T01:45:12.746Z,77.27
2019-02-22T01:47:40.868Z,77.60
2019-02-22T01:50:08.854Z,68.17
2019-02-22T01:52:37.497Z,72.53
2019-02-22T01:55:06.081Z,78.43
2019-02-22T01:57:34.213Z,79.83
2019-02-22T02:00:02.217Z,76.17
2019-02-22T02:02:30.217Z,73.33
2019-02-22T02:04:58.208Z,76.53
2019-02-22T02:07:26.208Z,76.07
2019-02-22T02:09:53.930Z,74.27
2019-02-22T02:12:22.382Z,80.47
2019-02-22T02:14:50.618Z,84.30
2019-02-22T02:17:18.629Z,73.80
2019-02-22T02:19:46.645Z,77.37
2019-02-22T02:22:14.738Z,74.47
2019-02-22T02:24:42.459Z,75.33
2019-02-22T02:27:10.402Z,79.70
2019-02-22T02:29:38.102Z,76.20
2019-02-22T02:32:05.774Z,76.13
2019-02-22T02:34:33.784Z,81.87
2019-02-22T02:37:01.862Z,79.30
2019-02-22T02:39:29.876Z,69.63
2019-02-22T02:41:57.946Z,72.37
2019-02-22T02:44:26.267Z,76.47
2019-02-22T02:46:54.204Z,78.03
2019-02-22T02:49:22.433Z,76.27
2019-02-22T02:51:50.814Z,74.37
2019-02-22T02:54:18.723Z,72.67
2019-02-22T02:56:46.698Z,73.53
2019-02-22T02:59:14.673Z,70.17
2019-02-22T03:01:42.401Z,67.03
2019-02-22T03:04:11.066Z,65.47
2019-02-22T03:06:58.463Z,67.33
2019-02-22T03:09:27.069Z,72.30
2019-02-22T03:11:54.737Z,73.13
2019-02-22T03:14:23.064Z,71.20
2019-02-22T03:16:51.055Z,74.93
2019-02-22T03:19:19.131Z,64.97
2019-02-22T03:21:47.630Z,68.23
2019-02-22T03:24:15.297Z,71.83
2019-02-22T03:26:43.468Z,67.07
2019-02-22T03:29:11.461Z,67.97
2019-02-22T03:31:39.435Z,63.30
2019-02-22T03:34:07.215Z,57.90
2019-02-22T03:36:35.200Z,58.67
2019-02-22T03:39:04.345Z,57.90
2019-02-22T03:41:33.624Z,59.13
2019-02-22T03:44:01.892Z,58.87
2019-02-22T03:46:30.299Z,58.90
2019-02-22T03:48:58.216Z,56.17
2019-02-22T03:51:26.136Z,60.40
2019-02-22T03:53:59.566Z,56.20
2019-02-22T03:56:27.305Z,53.87
2019-02-22T03:58:54.952Z,55.13
2019-02-22T04:01:23.662Z,51.63
2019-02-22T04:03:51.822Z,54.93
2019-02-22T04:06:19.726Z,53.60
2019-02-22T04:08:47.386Z,56.70
2019-02-22T04:11:15.716Z,56.43
2019-02-22T04:13:43.641Z,53.97
2019-02-22T04:16:11.608Z,51.67
2019-02-22T04:18:39.838Z,51.43
2019-02-22T04:21:07.508Z,51.77
2019-02-22T04:23:35.197Z,50.03
2019-02-22T04:26:02.859Z,57.40
2019-02-22T04:28:30.813Z,50.77
2019-02-22T04:30:58.481Z,55.60
2019-02-22T04:33:26.482Z,48.17
2019-02-22T04:35:54.495Z,51.47
2019-02-22T04:38:22.511Z,49.40
2019-02-22T04:40:50.684Z,53.63
2019-02-22T04:43:18.354Z,52.43
2019-02-22T04:45:46.575Z,48.80
2019-02-22T04:48:15.166Z,48.67
2019-02-22T04:50:43.123Z,50.60
2019-02-22T04:53:11.302Z,47.87
2019-02-22T04:55:39.321Z,51.63
2019-02-22T04:58:07.655Z,43.50
2019-02-22T05:00:35.930Z,48.13
2019-02-22T05:03:03.602Z,45.10
2019-02-22T05:05:32.288Z,44.50
2019-02-22T05:08:01.797Z,42.13
2019-02-22T05:10:30.061Z,46.20
2019-02-22T05:12:57.737Z,44.17
2019-02-22T05:15:26.091Z,43.67
2019-02-22T05:17:54.549Z,41.87
2019-02-22T05:20:23.028Z,46.33
2019-02-22T05:23:03.007Z,40.63
2019-02-22T05:25:20.413Z,42.40
2019-02-22T05:27:48.352Z,42.73
2019-02-22T05:30:16.015Z,42.20
2019-02-22T05:32:43.984Z,40.10
2019-02-22T05:35:11.708Z,47.13
2019-02-22T05:37:39.754Z,42.23
2019-02-22T05:40:16.717Z,45.97
2019-02-22T05:42:45.141Z,45.67
2019-02-22T05:45:13.466Z,45.93
2019-02-22T05:47:41.436Z,45.87
2019-02-22T05:50:09.408Z,47.57
2019-02-22T05:52:37.332Z,45.60
2019-02-22T05:55:05.070Z,42.37
2019-02-22T05:57:33.042Z,50.23
2019-02-22T06:00:01.090Z,47.57
2019-02-22T06:02:29.651Z,43.47
2019-02-22T06:04:57.330Z,44.13
2019-02-22T06:07:25.274Z,49.23
2019-02-22T06:09:53.607Z,55.70
2019-02-22T06:12:21.528Z,47.63
2019-02-22T06:14:49.534Z,49.00
2019-02-22T06:17:17.565Z,50.37
2019-02-22T06:19:45.897Z,49.80
2019-02-22T06:22:14.149Z,48.17
2019-02-22T06:24:41.914Z,46.43
2019-02-22T06:27:09.949Z,50.53
2019-02-22T06:29:37.869Z,47.80
2019-02-22T06:32:05.925Z,47.50
2019-02-22T06:34:34.284Z,53.97
2019-02-22T06:37:02.614Z,53.50
2019-02-22T06:39:30.664Z,51.30
2019-02-22T06:41:58.337Z,58.57
2019-02-22T06:44:26.002Z,50.13
2019-02-22T06:46:53.665Z,49.97
2019-02-22T06:49:21.570Z,57.00
2019-02-22T06:51:49.902Z,57.00
2019-02-22T06:54:17.795Z,51.40
2019-02-22T06:56:45.816Z,53.50
2019-02-22T06:59:13.764Z,55.60
2019-02-22T07:01:41.818Z,59.63
2019-02-22T07:04:10.122Z,59.87
2019-02-22T07:06:38.070Z,54.27
2019-02-22T07:09:06.154Z,56.87
2019-02-22T07:11:42.661Z,55.07
2019-02-22T07:14:10.601Z,65.20
2019-02-22T07:16:38.565Z,54.87
2019-02-22T07:19:06.487Z,62.47
2019-02-22T07:21:44.030Z,57.47
2019-02-22T07:24:04.151Z,62.60
2019-02-22T07:26:32.160Z,62.27
2019-02-22T07:28:59.833Z,64.87
2019-02-22T07:31:27.813Z,65.80
2019-02-22T07:33:55.777Z,60.63
2019-02-22T07:36:23.989Z,64.40
2019-02-22T07:38:52.486Z,60.77
2019-02-22T07:41:20.521Z,70.03
2019-02-22T07:43:48.792Z,65.30
2019-02-22T07:46:17.416Z,60.03
2019-02-22T07:48:45.434Z,69.80
2019-02-22T07:51:13.649Z,65.80
2019-02-22T07:53:41.326Z,69.40
2019-02-22T07:56:09.350Z,67.53
2019-02-22T07:58:37.625Z,67.73
2019-02-22T08:01:05.922Z,62.70
2019-02-22T08:03:37.253Z,68.63
2019-02-22T08:06:04.289Z,70.17
2019-02-22T08:08:32.288Z,66.03
2019-02-22T08:11:00.281Z,63.57
2019-02-22T08:13:28.249Z,68.77
2019-02-22T08:15:56.285Z,66.43
2019-02-22T08:18:23.953Z,67.90
2019-02-22T08:20:52.374Z,69.30
2019-02-22T08:23:20.030Z,62.97
2019-02-22T08:25:48.098Z,74.73
2019-02-22T08:28:15.817Z,80.03
2019-02-22T08:30:44.106Z,66.07
2019-02-22T08:33:12.376Z,71.43
2019-02-22T08:35:40.373Z,69.73
2019-02-22T08:38:08.962Z,64.33
2019-02-22T08:40:36.885Z,62.10
2019-02-22T08:43:04.540Z,63.83
2019-02-22T08:45:32.821Z,64.87
2019-02-22T08:48:00.474Z,59.73
2019-02-22T08:50:28.154Z,77.67
2019-02-22T08:52:56.369Z,69.90
2019-02-22T08:55:24.261Z,66.87
2019-02-22T08:57:52.630Z,65.30
2019-02-22T09:00:20.353Z,64.83
2019-02-22T09:02:48.321Z,76.90
2019-02-22T09:05:16.362Z,67.10
2019-02-22T09:07:44.901Z,75.73
2019-02-22T09:10:12.970Z,70.43
2019-02-22T09:12:41.037Z,71.90
2019-02-22T09:15:08.711Z,72.80
2019-02-22T09:17:37.082Z,71.73
2019-02-22T09:20:04.914Z,69.40
2019-02-22T09:22:33.217Z,71.57
2019-02-22T09:25:01.233Z,70.50
2019-02-22T09:27:29.262Z,68.53
2019-02-22T09:29:59.180Z,64.70
2019-02-22T09:32:27.254Z,62.13
2019-02-22T09:34:54.921Z,68.83
2019-02-22T09:37:23.185Z,65.87
2019-02-22T09:39:51.157Z,59.90
2019-02-22T09:42:19.129Z,64.13
2019-02-22T09:44:47.401Z,59.27
2019-02-22T09:47:15.058Z,57.63
2019-02-22T09:49:42.733Z,53.57
2019-02-22T09:52:11.010Z,61.80
2019-02-22T09:54:39.106Z,60.00
2019-02-22T09:57:07.562Z,61.23
2019-02-22T09:59:35.365Z,58.83
2019-02-22T10:02:03.294Z,53.80
2019-02-22T10:04:31.329Z,49.43
2019-02-22T10:06:59.536Z,52.90
2019-02-22T10:09:27.511Z,55.23
2019-02-22T10:11:55.562Z,35.30
2019-02-22T10:14:23.545Z,39.60
2019-02-22T10:16:51.609Z,35.87
2019-02-22T10:19:19.293Z,41.83
2019-02-22T10:21:47.558Z,35.90
2019-02-22T10:24:15.585Z,32.57
2019-02-22T10:26:43.653Z,32.23
2019-02-22T10:29:11.982Z,28.30
2019-02-22T10:31:39.636Z,30.47
2019-02-22T10:34:07.985Z,31.53
2019-02-22T10:36:44.714Z,32.80
2019-02-22T10:39:06.181Z,32.00
2019-02-22T10:41:34.699Z,36.23
2019-02-22T10:44:03.055Z,33.80
2019-02-22T10:46:30.941Z,35.37
2019-02-22T10:48:59.227Z,34.77
2019-02-22T10:51:27.242Z,39.37
2019-02-22T10:53:55.563Z,38.20
2019-02-22T10:56:23.250Z,33.70
2019-02-22T10:58:50.906Z,33.20
2019-02-22T11:01:18.922Z,31.13
2019-02-22T11:03:47.033Z,42.00
2019-02-22T11:06:15.617Z,70.40
2019-02-22T11:08:43.678Z,129.33
2019-02-22T11:11:12.163Z,36.33
2019-02-22T11:13:39.838Z,45.27
2019-02-22T11:16:08.201Z,32.43
2019-02-22T11:18:35.884Z,27.33
2019-02-22T11:21:04.146Z,28.67
2019-02-22T11:23:31.822Z,29.27
2019-02-22T11:26:00.041Z,30.83
2019-02-22T11:28:27.782Z,32.80
2019-02-22T11:30:55.778Z,29.20
2019-02-22T11:33:23.453Z,25.20
2019-02-22T11:35:51.654Z,27.37
2019-02-22T11:38:19.900Z,18.00
2019-02-22T11:40:48.235Z,14.17
2019-02-22T11:43:16.282Z,15.60
2019-02-22T11:45:44.175Z,17.53
2019-02-22T11:48:12.519Z,12.27
2019-02-22T11:50:40.183Z,10.73
2019-02-22T11:53:07.840Z,7.10
2019-02-22T11:55:36.182Z,4.40
2019-02-22T11:58:04.190Z,5.80
2019-02-22T12:00:32.542Z,9.53
2019-02-22T12:03:12.221Z,5.10
2019-02-22T12:05:29.893Z,3.83
2019-02-22T12:07:57.601Z,4.30
2019-02-22T12:10:25.272Z,3.63
2019-02-22T12:12:53.243Z,3.60
2019-02-22T12:15:20.926Z,3.60
2019-02-22T12:17:49.484Z,4.17
2019-02-22T12:20:17.654Z,3.20
2019-02-22T12:22:45.305Z,4.43
2019-02-22T12:25:13.615Z,4.03
2019-02-22T12:27:41.268Z,4.40
2019-02-22T12:30:10.261Z,5.17
2019-02-22T12:32:39.594Z,4.40
2019-02-22T12:35:07.765Z,4.70
2019-02-22T12:37:35.418Z,4.40
2019-02-22T12:40:03.086Z,12.63
2019-02-22T12:42:31.078Z,4.63
2019-02-22T12:45:02.891Z,4.83
2019-02-22T12:47:29.786Z,3.80
2019-02-22T12:49:57.762Z,3.93
2019-02-22T12:52:25.662Z,3.57
2019-02-22T12:54:53.597Z,4.17
2019-02-22T12:57:22.209Z,3.40
2019-02-22T12:59:50.189Z,3.17
2019-02-22T13:02:18.458Z,3.37
2019-02-22T13:04:46.736Z,2.60
2019-02-22T13:07:14.748Z,2.47
2019-02-22T13:09:42.437Z,3.20
2019-02-22T13:12:14.008Z,3.00
2019-02-22T13:14:40.761Z,3.40
2019-02-22T13:17:08.704Z,3.30
2019-02-22T13:19:36.654Z,3.20
2019-02-22T13:22:04.564Z,2.90
2019-02-22T13:24:32.521Z,3.40
2019-02-22T13:27:00.762Z,3.47
2019-02-22T13:29:28.409Z,2.90
2019-02-22T13:31:56.759Z,5.13
2019-02-22T13:34:24.766Z,3.37
2019-02-22T13:36:52.745Z,3.07
2019-02-22T13:39:20.676Z,3.10
2019-02-22T13:41:48.699Z,3.10
2019-02-22T13:44:17.018Z,3.37
2019-02-22T13:46:45.452Z,2.97
2019-02-22T13:49:13.677Z,3.80
2019-02-22T13:51:41.416Z,2.93
2019-02-22T13:54:09.330Z,3.37
2019-02-22T13:56:37.681Z,3.10
2019-02-22T13:59:05.916Z,3.00
2019-02-22T14:01:33.917Z,3.00
2019-02-22T14:04:01.567Z,3.37
2019-02-22T14:06:29.966Z,3.60
2019-02-22T14:08:58.295Z,3.10
2019-02-22T14:11:26.654Z,3.43
2019-02-22T14:13:54.652Z,2.10
2019-02-22T14:16:22.300Z,2.87
2019-02-22T14:18:50.057Z,2.63
2019-02-22T14:21:18.038Z,5.70
2019-02-22T14:23:46.358Z,2.50
2019-02-22T14:26:14.445Z,3.67
2019-02-22T14:28:42.697Z,2.90
2019-02-22T14:31:10.630Z,3.67
2019-02-22T14:33:38.612Z,2.70
2019-02-22T14:36:06.549Z,3.33
2019-02-22T14:38:34.761Z,4.93
2019-02-22T14:41:03.093Z,7.27
2019-02-22T14:43:31.410Z,3.13
2019-02-22T14:45:59.680Z,3.13
2019-02-22T14:48:27.702Z,3.27
2019-02-22T14:50:55.961Z,4.00
2019-02-22T14:53:24.346Z,3.00
2019-02-22T14:55:52.514Z,6.40
2019-02-22T14:58:20.537Z,4.20
2019-02-22T15:00:48.895Z,3.30
2019-02-22T15:03:17.150Z,4.13
2019-02-22T15:05:45.202Z,4.47
2019-02-22T15:08:13.585Z,5.13
2019-02-22T15:10:41.503Z,3.77
2019-02-22T15:13:12.662Z,5.50
2019-02-22T15:16:04.314Z,3.70
2019-02-22T15:18:32.246Z,5.17
2019-02-22T15:21:00.162Z,4.20
2019-02-22T15:23:28.099Z,4.63
2019-02-22T15:25:56.045Z,8.90
2019-02-22T15:28:26.252Z,3.63
2019-02-22T15:30:53.178Z,4.80
2019-02-22T15:33:20.833Z,6.13
2019-02-22T15:35:49.169Z,3.60
2019-02-22T15:38:16.846Z,4.53
2019-02-22T15:40:45.108Z,4.27
2019-02-22T15:43:12.752Z,4.70
2019-02-22T15:45:41.290Z,4.30
2019-02-22T15:48:09.625Z,3.77
2019-02-22T15:50:37.862Z,3.73
2019-02-22T15:53:06.469Z,3.37
2019-02-22T15:55:34.764Z,4.33
2019-02-22T15:58:02.677Z,6.87
2019-02-22T16:00:31.093Z,4.00
2019-02-22T16:02:59.326Z,4.10
2019-02-22T16:05:35.828Z,6.10
2019-02-22T16:08:04.012Z,5.70
2019-02-22T16:10:32.005Z,3.40
2019-02-22T16:13:00.344Z,3.97
2019-02-22T16:15:28.024Z,4.43
2019-02-22T16:17:56.005Z,3.60
2019-02-22T16:20:24.441Z,4.20
2019-02-22T16:22:52.399Z,4.27
2019-02-22T16:25:20.647Z,4.20
2019-02-22T16:27:48.981Z,4.10
2019-02-22T16:30:18.224Z,8.80
2019-02-22T16:32:46.182Z,3.07
2019-02-22T16:35:14.601Z,3.70
2019-02-22T16:37:42.798Z,3.30
2019-02-22T16:40:10.968Z,2.90
2019-02-22T16:42:39.296Z,2.50
2019-02-22T16:45:07.802Z,2.40
2019-02-22T16:47:40.022Z,4.77
2019-02-22T16:50:07.125Z,3.17
2019-02-22T16:52:34.973Z,2.83
2019-02-22T16:55:02.814Z,3.60
2019-02-22T16:57:30.777Z,3.03
2019-02-22T16:59:58.704Z,4.43
2019-02-22T17:02:26.732Z,3.40
2019-02-22T17:04:54.777Z,2.40
2019-02-22T17:07:22.773Z,2.50
2019-02-22T17:09:50.495Z,2.70
2019-02-22T17:12:18.617Z,2.63
2019-02-22T17:14:46.589Z,2.63
2019-02-22T17:17:15.097Z,2.70
2019-02-22T17:19:43.345Z,3.13
2019-02-22T17:22:11.590Z,3.50
2019-02-22T17:24:39.881Z,2.43
2019-02-22T17:27:08.077Z,4.60
2019-02-22T17:29:35.728Z,5.00
2019-02-22T17:32:03.398Z,5.50
2019-02-22T17:34:31.345Z,15.83
2019-02-22T17:36:59.306Z,10.73
2019-02-22T17:39:26.974Z,7.00
2019-02-22T17:41:54.889Z,5.03
2019-02-22T17:44:22.662Z,3.20
2019-02-22T17:46:57.704Z,6.13
2019-02-22T17:49:21.366Z,4.60
2019-02-22T17:51:49.057Z,2.90
2019-02-22T17:54:16.721Z,4.33
2019-02-22T17:56:44.713Z,3.43
2019-02-22T17:59:12.929Z,4.23
2019-02-22T18:01:40.653Z,5.17
2019-02-22T18:04:08.624Z,6.40
2019-02-22T18:06:36.297Z,6.90
2019-02-22T18:09:05.772Z,6.37
2019-02-22T18:11:33.473Z,9.10
2019-02-22T18:14:01.246Z,6.80
2019-02-22T18:16:29.023Z,6.93
2019-02-22T18:18:57.310Z,9.30
2019-02-22T18:21:25.448Z,8.97
2019-02-22T18:23:53.113Z,6.87
2019-02-22T18:26:21.184Z,11.20
2019-02-22T18:28:49.357Z,10.27
2019-02-22T18:31:17.024Z,8.37
2019-02-22T18:33:44.953Z,8.23
2019-02-22T18:36:12.943Z,10.50
2019-02-22T18:38:41.268Z,7.33
2019-02-22T18:41:09.213Z,10.80
2019-02-22T18:43:37.754Z,12.23
2019-02-22T18:46:05.753Z,10.17
2019-02-22T18:48:33.421Z,12.33
2019-02-22T18:51:01.090Z,13.80
2019-02-22T18:53:29.005Z,12.77
2019-02-22T18:55:56.934Z,10.83
2019-02-22T18:58:24.998Z,15.53
2019-02-22T19:00:53.362Z,10.57
2019-02-22T19:03:21.546Z,15.83
2019-02-22T19:05:49.508Z,11.17
2019-02-22T19:08:17.206Z,22.03
2019-02-22T19:10:44.985Z,14.10
2019-02-22T19:13:13.233Z,15.90
2019-02-22T19:15:41.159Z,13.27
2019-02-22T19:18:09.348Z,14.83
2019-02-22T19:20:37.313Z,14.93
2019-02-22T19:23:04.977Z,25.17
2019-02-22T19:25:33.002Z,27.10
2019-02-22T19:28:01.091Z,27.13
2019-02-22T19:30:28.748Z,17.27
2019-02-22T19:32:56.678Z,17.97
2019-02-22T19:35:24.332Z,13.13
2019-02-22T19:37:52.421Z,15.10
2019-02-22T19:40:20.849Z,14.53
2019-02-22T19:42:48.523Z,16.13
2019-02-22T19:45:16.425Z,15.93
2019-02-22T19:47:44.807Z,13.37
2019-02-22T19:50:13.061Z,12.90
2019-02-22T19:52:40.932Z,16.93
2019-02-22T19:55:10.881Z,15.07
2019-02-22T19:57:38.897Z,15.80
2019-02-22T20:00:08.663Z,17.37
2019-02-22T20:02:36.693Z,21.47
2019-02-22T20:05:04.690Z,16.10
2019-02-22T20:07:32.641Z,21.70
2019-02-22T20:10:00.954Z,27.87
2019-02-22T20:12:29.323Z,16.97
2019-02-22T20:14:57.005Z,45.90
2019-02-22T20:17:25.675Z,38.97
2019-02-22T20:19:54.033Z,30.73
2019-02-22T20:22:22.070Z,22.80
2019-02-22T20:24:49.745Z,24.37
2019-02-22T20:27:17.983Z,39.17
2019-02-22T20:29:45.685Z,21.60
2019-02-22T20:32:13.349Z,17.77
2019-02-22T20:34:41.960Z,14.83
2019-02-22T20:37:09.682Z,15.53
2019-02-22T20:39:37.622Z,14.97
2019-02-22T20:42:05.957Z,17.20
2019-02-22T20:44:33.996Z,15.73
2019-02-22T20:47:02.025Z,19.03
2019-02-22T20:49:29.940Z,15.90
2019-02-22T20:51:57.934Z,16.43
2019-02-22T20:54:26.182Z,13.73
2019-02-22T20:56:53.844Z,22.47
2019-02-22T20:59:21.774Z,17.90
2019-02-22T21:01:49.708Z,14.60
2019-02-22T21:04:18.397Z,13.17
2019-02-22T21:06:46.092Z,14.40
2019-02-22T21:09:14.094Z,14.87
2019-02-22T21:11:42.608Z,14.33
2019-02-22T21:14:10.911Z,17.20
2019-02-22T21:16:39.190Z,15.07
2019-02-22T21:19:06.840Z,15.07
2019-02-22T21:21:34.593Z,16.20
2019-02-22T21:24:02.623Z,13.47
2019-02-22T21:26:30.946Z,13.57
2019-02-22T21:28:58.998Z,12.13
2019-02-22T21:31:27.502Z,14.63
2019-02-22T21:33:55.417Z,16.53
2019-02-22T21:36:23.401Z,13.07
2019-02-22T21:38:51.614Z,13.07
2019-02-22T21:41:19.969Z,13.23
2019-02-22T21:43:48.257Z,12.53
2019-02-22T21:46:16.457Z,11.43
2019-02-22T21:48:44.585Z,14.77
2019-02-22T21:51:12.242Z,15.63
2019-02-22T21:53:40.210Z,14.77
2019-02-22T21:56:07.980Z,16.73
2019-02-22T21:58:36.389Z,12.93
2019-02-22T22:01:04.257Z,13.17
2019-02-22T22:03:32.533Z,16.23
2019-02-22T22:06:00.541Z,14.70
2019-02-22T22:08:29.697Z,14.97
2019-02-22T22:10:57.706Z,15.40
2019-02-22T22:13:25.718Z,18.20
2019-02-22T22:15:53.950Z,17.50
2019-02-22T22:18:21.882Z,15.73
2019-02-22T22:20:49.905Z,16.03
2019-02-22T22:23:17.601Z,14.80
2019-02-22T22:25:45.257Z,14.00
2019-02-22T22:28:13.561Z,14.10
2019-02-22T22:30:41.794Z,14.40
2019-02-22T22:33:10.006Z,16.03
2019-02-22T22:35:38.181Z,13.83
2019-02-22T22:38:05.832Z,14.87
2019-02-22T22:40:33.818Z,15.57
2019-02-22T22:43:02.145Z,12.70
2019-02-22T22:45:30.175Z,13.53
2019-02-22T22:47:58.149Z,14.20
2019-02-22T22:50:25.824Z,12.67
2019-02-22T22:52:54.061Z,15.73
2019-02-22T22:55:22.342Z,15.33
2019-02-22T22:57:50.238Z,14.03
2019-02-22T23:00:35.617Z,14.30
2019-02-22T23:03:04.372Z,14.70
2019-02-22T23:05:32.668Z,15.20
2019-02-22T23:08:00.677Z,19.20
2019-02-22T23:10:29.313Z,13.40
2019-02-22T23:12:57.677Z,12.30
2019-02-22T23:15:25.862Z,12.53
2019-02-22T23:17:54.041Z,11.90
2019-02-22T23:20:22.305Z,14.30
2019-02-22T23:22:50.386Z,12.80
2019-02-22T23:25:18.340Z,9.80
2019-02-22T23:27:46.393Z,11.53
2019-02-22T23:30:14.417Z,13.10
2019-02-22T23:32:42.165Z,11.37
2019-02-22T23:35:09.811Z,11.97
2019-02-22T23:37:38.084Z,11.93
2019-02-22T23:40:06.434Z,10.10
2019-02-22T23:42:34.745Z,13.17
2019-02-22T23:45:03.022Z,9.10
2019-02-22T23:47:31.081Z,10.43
2019-02-22T23:49:59.573Z,10.43
2019-02-22T23:52:27.484Z,11.70
2019-02-22T23:54:55.485Z,11.23
2019-02-22T23:57:23.453Z,11.60
2019-02-22T23:59:51.459Z,11.23
